ASU weather

Silvio Pettirossi International Airport
AsunciĆ³n, Central Department, Paraguay

Public forecast

Using degrees Celsius for public forecast. Weather courtesy of forecast.io.

METAR (pilot weather report)

Retrieved 2019/08/21 10:00 UTC (34 minutes ago):

SGAS 211000Z VRB03KT CAVOK 10/08 Q1022

TAF (pilot weather forecast)

Retrieved 2019/08/21 06:01 UTC (5 hours ago):

TAF SGAS 210358Z 2106/2206 18007KT CAVOK TX27/2119Z TN10/2109Z PROB30 2107/2109 18003KT 7000 NSC BECMG 2115/2118 14007KT CAVOK